Time;durP1;ratioP1;P1;durP2;ratioP2;P2;SDS_P1;SDS_P2;PMS_P1;PMS_P2;Temp;Humidity;BMP_temperature;BMP_pressure;BME280_temperature;BME280_humidity;BME280_pressure;Samples;Min_cycle;Max_cycle;Signal;HPM_P1;HPM_P2
2022/01/31 00:00:55;;;;;;;0.20;0.20;;;1.50;99.90;;;1.24;100.00;100439.66;4901531;29;20212;-80
2022/01/31 00:03:23;;;;;;;0.20;0.20;;;1.50;99.90;;;1.23;100.00;100450.91;4881833;29;20218;-80
2022/01/31 00:05:51;;;;;;;0.20;0.20;;;1.50;99.90;;;1.27;100.00;100464.16;4863642;29;20211;-80
2022/01/31 00:08:24;;;;;;;0.10;0.10;;;1.50;99.90;;;1.26;100.00;100459.75;4877217;29;20229;-80
2022/01/31 00:10:52;;;;;;;0.20;0.20;;;1.50;99.90;;;1.27;100.00;100460.66;4872953;29;20204;-80
2022/01/31 00:13:26;;;;;;;0.10;0.10;;;1.60;99.90;;;1.24;100.00;100444.88;4894308;29;20215;-80
2022/01/31 00:15:58;;;;;;;0.10;0.10;;;1.60;99.90;;;1.25;100.00;100449.28;4858549;29;20204;-80
2022/01/31 00:18:26;;;;;;;0.20;0.20;;;1.60;99.90;;;1.28;100.00;100447.69;4864041;29;20230;-80
2022/01/31 00:20:54;;;;;;;0.20;0.20;;;1.50;99.90;;;1.26;100.00;100444.13;4889158;29;20223;-80
2022/01/31 00:23:22;;;;;;;0.30;0.30;;;1.50;99.90;;;1.25;100.00;100442.34;4885211;29;20216;-80
2022/01/31 00:25:50;;;;;;;0.20;0.20;;;1.50;99.90;;;1.28;100.00;100446.81;4880793;29;20211;-80
2022/01/31 00:28:18;;;;;;;0.20;0.20;;;1.40;99.90;;;1.29;100.00;100446.88;4866601;29;20223;-80
2022/01/31 00:30:47;;;;;;;0.30;0.30;;;1.60;99.90;;;1.28;100.00;100432.06;4895020;29;20204;-80
2022/01/31 00:33:15;;;;;;;0.20;0.20;;;1.60;99.90;;;1.32;100.00;100430.53;4866301;29;20204;-80
2022/01/31 00:35:43;;;;;;;0.20;0.20;;;1.60;99.90;;;1.31;100.00;100436.56;4867321;29;20215;-80
2022/01/31 00:38:11;;;;;;;0.10;0.10;;;1.60;99.90;;;1.29;100.00;100423.44;4892288;29;20235;-80
2022/01/31 00:40:42;;;;;;;0.20;0.20;;;1.60;99.90;;;1.33;100.00;100415.78;4881144;29;20569;-80
2022/01/31 00:43:14;;;;;;;0.20;0.20;;;1.50;99.90;;;1.33;100.00;100411.47;4871479;29;20335;-80
2022/01/31 00:45:46;;;;;;;0.20;0.20;;;1.60;99.90;;;1.36;100.00;100384.66;4855380;29;20215;-80
2022/01/31 00:48:19;;;;;;;0.20;0.20;;;1.50;99.90;;;1.43;100.00;100371.97;4872085;29;20228;-80
2022/01/31 00:50:47;;;;;;;0.20;0.20;;;1.60;99.90;;;1.58;100.00;100367.44;4880649;29;20216;-80
2022/01/31 00:53:15;;;;;;;0.10;0.10;;;1.60;99.90;;;1.57;100.00;100344.81;4865679;29;20224;-80
2022/01/31 00:55:45;;;;;;;0.20;0.20;;;1.60;99.90;;;1.40;100.00;100305.81;4895696;29;20208;-80
2022/01/31 00:58:13;;;;;;;0.20;0.20;;;1.70;99.90;;;1.32;100.00;100302.88;4863939;29;20239;-80
2022/01/31 01:00:41;;;;;;;0.20;0.20;;;1.60;99.90;;;1.42;100.00;100314.59;4881713;29;20703;-80
2022/01/31 01:03:09;;;;;;;0.20;0.20;;;1.60;99.90;;;1.38;100.00;100320.47;4862771;29;20597;-80
2022/01/31 01:05:38;;;;;;;0.20;0.20;;;1.70;99.90;;;1.36;100.00;100301.28;4880130;29;20207;-80
2022/01/31 01:08:06;;;;;;;0.20;0.20;;;1.70;99.90;;;1.41;100.00;100307.59;4855621;29;20251;-80
2022/01/31 01:10:34;;;;;;;0.20;0.20;;;1.70;99.90;;;1.45;100.00;100289.53;4882510;29;20216;-80
2022/01/31 01:13:02;;;;;;;0.52;0.52;;;1.70;99.90;;;1.46;100.00;100274.81;4869309;29;20240;-80
2022/01/31 01:15:30;;;;;;;0.20;0.20;;;1.70;99.90;;;1.52;100.00;100275.94;4866095;29;20880;-81
2022/01/31 01:17:59;;;;;;;0.10;0.10;;;1.70;99.90;;;1.54;100.00;100255.16;4866210;29;20739;-80
2022/01/31 01:20:27;;;;;;;0.30;0.30;;;1.70;99.90;;;1.55;100.00;100230.88;4883289;29;20216;-80
2022/01/31 01:22:57;;;;;;;0.20;0.20;;;1.70;99.90;;;1.58;100.00;100229.28;4850654;29;20208;-80
2022/01/31 01:25:25;;;;;;;0.10;0.10;;;1.80;99.90;;;1.60;100.00;100240.69;4868062;29;20220;-80
2022/01/31 01:27:54;;;;;;;0.20;0.20;;;1.80;99.90;;;1.65;100.00;100217.41;4864923;29;20250;-80
2022/01/31 01:30:22;;;;;;;0.20;0.20;;;1.80;99.90;;;1.70;100.00;100205.44;4889557;29;20228;-80
2022/01/31 01:33:18;;;;;;;0.20;0.20;;;1.90;99.90;;;1.76;100.00;100203.09;4875640;29;20711;-80
2022/01/31 01:35:39;;;;;;;0.20;0.20;;;1.90;99.90;;;1.91;100.00;100208.03;4887976;29;20208;-80
2022/01/31 01:38:07;;;;;;;0.20;0.20;;;1.90;99.90;;;1.94;100.00;100210.75;4880705;29;20234;-80
2022/01/31 01:40:40;;;;;;;0.20;0.20;;;2.00;99.90;;;2.02;100.00;100208.44;4868540;29;20212;-80
2022/01/31 01:43:14;;;;;;;0.20;0.20;;;2.00;99.90;;;2.11;100.00;100208.81;4874853;29;20227;-80
2022/01/31 01:45:44;;;;;;;0.20;0.20;;;2.10;99.90;;;2.05;100.00;100179.88;4881925;29;20220;-80
2022/01/31 01:48:15;;;;;;;0.40;0.40;;;2.10;99.90;;;2.10;100.00;100174.00;4898590;29;20243;-80
2022/01/31 01:50:43;;;;;;;0.47;0.47;;;2.20;99.90;;;2.09;100.00;100151.38;4868894;29;20244;-80
2022/01/31 01:53:14;;;;;;;0.20;0.20;;;2.20;99.90;;;2.14;100.00;100147.22;4885497;29;20231;-80
2022/01/31 01:55:46;;;;;;;0.20;0.20;;;2.20;99.90;;;2.18;100.00;100130.84;4881660;29;20207;-81
2022/01/31 01:58:16;;;;;;;0.10;0.10;;;2.30;99.90;;;2.18;100.00;100124.75;4885457;29;20232;-81
2022/01/31 02:00:59;;;;;;;0.20;0.20;;;2.30;99.90;;;2.22;100.00;100113.59;4873426;29;20223;-80
2022/01/31 02:04:06;;;;;;;0.20;0.20;;;2.30;99.90;;;2.50;100.00;100131.16;4896270;29;20630;-80
2022/01/31 02:06:40;;;;;;;0.20;0.20;;;2.40;99.90;;;2.54;100.00;100104.31;4873129;29;20235;-80
2022/01/31 02:09:08;;;;;;;0.20;0.20;;;2.50;99.90;;;2.38;100.00;100068.06;4889099;29;20680;-80
2022/01/31 02:11:37;;;;;;;0.20;0.20;;;2.50;99.90;;;2.33;100.00;100052.25;4871644;29;20211;-80
2022/01/31 02:14:06;;;;;;;0.20;0.20;;;2.50;99.90;;;2.45;100.00;100036.13;4866619;29;20205;-80
2022/01/31 02:16:54;;;;;;;0.20;0.20;;;2.50;99.90;;;2.46;100.00;100050.97;4894376;29;20227;-80
2022/01/31 02:19:29;;;;;;;0.20;0.20;;;2.50;99.90;;;2.48;100.00;100055.41;4889123;29;20673;-80
2022/01/31 02:22:18;;;;;;;0.20;0.20;;;2.60;99.90;;;2.50;100.00;100045.91;4892155;29;20204;-80
2022/01/31 02:24:52;;;;;;;0.20;0.20;;;2.60;99.90;;;2.55;100.00;100043.44;4886733;29;20208;-80
2022/01/31 02:27:35;;;;;;;0.20;0.20;;;2.60;99.90;;;2.52;100.00;100018.13;4891839;29;20232;-80
2022/01/31 02:30:17;;;;;;;0.20;0.20;;;2.60;99.90;;;2.56;100.00;100022.63;4865553;29;20216;-80
2022/01/31 02:32:47;;;;;;;0.20;0.20;;;2.70;99.90;;;2.61;100.00;100027.16;4875603;29;20235;-80
2022/01/31 02:35:16;;;;;;;0.20;0.20;;;2.70;99.90;;;2.65;100.00;100027.31;4865425;29;20653;-80
2022/01/31 02:37:44;;;;;;;0.20;0.20;;;2.70;99.90;;;2.75;100.00;100015.44;4878196;29;20237;-80
2022/01/31 02:40:21;;;;;;;0.20;0.20;;;2.80;99.90;;;2.85;100.00;99988.78;4869056;29;20211;-80
2022/01/31 02:42:52;;;;;;;0.20;0.20;;;2.80;99.90;;;2.95;100.00;99963.88;4881172;29;20216;-80
2022/01/31 02:45:22;;;;;;;0.20;0.20;;;2.90;99.90;;;3.10;100.00;99960.00;4880063;29;20221;-80
2022/01/31 02:47:56;;;;;;;0.20;0.20;;;3.00;99.90;;;3.33;100.00;99980.72;4866665;29;20232;-80
2022/01/31 02:50:27;;;;;;;0.20;0.20;;;3.10;99.90;;;3.34;100.00;99931.13;4863407;29;20212;-80
2022/01/31 02:53:13;;;;;;;0.20;0.20;;;3.20;99.90;;;3.31;100.00;99920.56;4863657;29;20232;-80
2022/01/31 02:55:45;;;;;;;0.20;0.20;;;3.30;99.90;;;3.37;100.00;99910.31;4888345;29;20211;-80
2022/01/31 02:58:17;;;;;;;0.20;0.20;;;3.30;99.90;;;3.34;100.00;99902.38;4918149;24;20244;-81
2022/01/31 03:00:47;;;;;;;0.20;0.20;;;3.40;99.90;;;3.35;100.00;99908.50;4879479;29;20213;-81
2022/01/31 03:03:34;;;;;;;0.20;0.20;;;3.40;99.90;;;3.38;100.00;99934.72;4865130;29;20209;-82
2022/01/31 03:06:02;;;;;;;0.20;0.20;;;3.40;99.90;;;3.37;100.00;99946.00;4839487;29;20210;-82
2022/01/31 03:08:30;;;;;;;0.20;0.20;;;3.40;99.90;;;3.45;100.00;99952.34;4856218;29;20245;-81
2022/01/31 03:11:10;;;;;;;0.20;0.20;;;3.40;99.90;;;3.40;100.00;99956.56;4815309;29;20214;-81
2022/01/31 03:13:50;;;;;;;0.20;0.20;;;3.50;99.90;;;3.36;100.00;99942.50;4835677;29;20244;-82
2022/01/31 03:16:19;;;;;;;0.20;0.20;;;3.50;99.90;;;3.35;100.00;99938.13;4844751;29;20217;-82
2022/01/31 03:19:07;;;;;;;0.10;0.10;;;3.50;99.90;;;3.38;100.00;99934.72;4860110;29;20218;-81
2022/01/31 03:21:36;;;;;;;0.17;0.17;;;3.50;99.90;;;3.35;100.00;99916.31;4824379;29;20234;-81
2022/01/31 03:24:05;;;;;;;0.20;0.20;;;3.40;99.90;;;3.38;100.00;99921.63;4829979;29;20225;-81
2022/01/31 03:26:34;;;;;;;0.20;0.20;;;3.50;99.90;;;3.38;100.00;99919.03;4843751;29;20233;-82
2022/01/31 03:29:03;;;;;;;0.20;0.20;;;3.50;99.90;;;3.43;100.00;99920.94;4846903;29;20229;-82
2022/01/31 03:31:32;;;;;;;0.20;0.20;;;3.50;99.90;;;3.39;100.00;99924.31;4834511;29;20210;-81
2022/01/31 03:34:00;;;;;;;0.20;0.20;;;3.50;99.90;;;3.51;100.00;99921.16;4864665;29;20229;-81
2022/01/31 03:36:28;;;;;;;0.20;0.20;;;3.50;99.90;;;3.41;100.00;99904.31;4856075;29;20217;-82
2022/01/31 03:38:56;;;;;;;0.20;0.20;;;3.50;99.90;;;3.43;100.00;99902.63;4840309;29;20860;-82
2022/01/31 03:41:25;;;;;;;0.20;0.20;;;3.50;99.90;;;3.52;100.00;99895.06;4844301;29;20221;-81
2022/01/31 03:43:53;;;;;;;0.20;0.20;;;3.50;99.90;;;3.72;100.00;99893.00;4867864;29;20602;-81
2022/01/31 03:46:23;;;;;;;0.20;0.20;;;3.60;99.90;;;3.56;100.00;99875.13;4821592;29;20218;-82
2022/01/31 03:48:52;;;;;;;0.20;0.20;;;3.70;99.90;;;3.46;100.00;99853.06;4826798;29;20601;-81
2022/01/31 03:51:38;;;;;;;0.20;0.20;;;3.60;99.90;;;3.56;100.00;99856.81;4857482;29;20218;-81
2022/01/31 03:54:07;;;;;;;0.20;0.20;;;3.60;99.90;;;3.54;100.00;99843.72;4845021;29;20234;-81
2022/01/31 03:56:35;;;;;;;0.20;0.20;;;3.60;99.90;;;3.52;100.00;99841.88;4858717;29;20206;-81
2022/01/31 03:59:22;;;;;;;0.20;0.20;;;3.60;99.90;;;3.49;100.00;99811.31;4829221;29;20215;-82
2022/01/31 04:01:51;;;;;;;0.20;0.20;;;3.60;99.90;;;3.46;100.00;99805.13;4833343;29;20218;-81
2022/01/31 04:04:20;;;;;;;0.20;0.20;;;3.60;99.90;;;3.43;100.00;99792.88;4837045;29;20214;-81
2022/01/31 04:06:48;;;;;;;0.22;0.22;;;3.60;99.90;;;3.50;100.00;99792.19;4854094;29;20222;-81
2022/01/31 04:09:15;;;;;;;0.20;0.20;;;3.60;99.90;;;3.49;100.00;99779.06;4861265;29;20221;-81
2022/01/31 04:11:45;;;;;;;0.17;0.17;;;3.60;99.90;;;3.41;100.00;99752.72;4851084;29;20234;-82
2022/01/31 04:14:13;;;;;;;0.20;0.20;;;3.60;99.90;;;3.37;100.00;99756.09;4823237;29;20245;-81
2022/01/31 04:16:41;;;;;;;0.20;0.20;;;3.60;99.90;;;3.42;100.00;99758.84;4865283;29;20214;-81
2022/01/31 04:19:09;;;;;;;0.20;0.20;;;3.50;99.90;;;3.40;100.00;99748.34;4831268;29;20217;-81
2022/01/31 04:21:37;;;;;;;0.20;0.20;;;3.50;99.90;;;3.33;100.00;99729.84;4847895;29;20221;-81
2022/01/31 04:24:06;;;;;;;0.10;0.10;;;3.50;99.90;;;3.33;100.00;99727.25;4849327;29;20225;-80
2022/01/31 04:26:44;;;;;;;0.10;0.10;;;3.50;99.90;;;3.31;100.00;99718.47;4850916;29;20214;-82
2022/01/31 04:29:17;;;;;;;0.20;0.20;;;3.50;99.90;;;3.21;100.00;99696.44;4849963;29;20220;-81
2022/01/31 04:31:49;;;;;;;0.20;0.20;;;3.50;99.90;;;3.23;100.00;99705.22;4858235;29;20218;-81
2022/01/31 04:34:17;;;;;;;0.20;0.20;;;3.50;99.90;;;3.25;100.00;99695.69;4865969;29;20234;-81
2022/01/31 04:36:45;;;;;;;0.20;0.20;;;3.40;99.90;;;3.25;100.00;99685.22;4841886;29;20580;-82
2022/01/31 04:39:17;;;;;;;0.10;0.10;;;3.40;99.90;;;3.22;100.00;99687.75;4825189;29;20221;-81
2022/01/31 04:41:48;;;;;;;0.15;0.15;;;3.40;99.90;;;3.17;100.00;99669.34;4837589;29;20233;-81
2022/01/31 04:44:17;;;;;;;0.20;0.20;;;3.40;99.90;;;3.16;100.00;99654.53;4856999;29;20593;-82
2022/01/31 04:46:49;;;;;;;0.20;0.20;;;3.40;99.90;;;3.14;100.00;99640.53;4849434;29;20217;-82
2022/01/31 04:49:21;;;;;;;0.20;0.20;;;3.40;99.90;;;3.09;100.00;99633.44;4823699;29;20214;-81
2022/01/31 04:51:49;;;;;;;0.20;0.20;;;3.30;99.90;;;3.06;100.00;99617.69;4853123;29;20209;-82
2022/01/31 04:54:17;;;;;;;0.20;0.20;;;3.30;99.90;;;3.07;100.00;99625.56;4871995;29;20230;-82
2022/01/31 04:56:46;;;;;;;0.20;0.20;;;3.30;99.90;;;3.12;100.00;99628.28;4852748;29;20221;-81
2022/01/31 04:59:14;;;;;;;0.20;0.20;;;3.30;99.90;;;3.53;100.00;99663.28;4855341;29;20211;-80
2022/01/31 05:01:46;;;;;;;0.20;0.20;;;3.40;99.90;;;3.61;100.00;99676.56;4828670;29;20217;-81
2022/01/31 05:04:15;;;;;;;0.20;0.20;;;3.50;99.90;;;4.32;100.00;99716.63;4858329;29;20220;-82
2022/01/31 05:06:45;;;;;;;0.20;0.20;;;3.90;99.90;;;4.50;100.00;99691.72;4841827;29;20225;-81
2022/01/31 05:09:13;;;;;;;0.20;0.20;;;4.10;99.90;;;4.55;100.00;99655.19;4816533;29;20221;-81
2022/01/31 05:11:41;;;;;;;0.13;0.13;;;4.40;99.90;;;4.49;100.00;99626.25;4860122;29;20225;-81
2022/01/31 05:14:09;;;;;;;0.10;0.10;;;;;;;4.58;100.00;99610.72;4859110;29;20249;-81
2022/01/31 05:16:37;;;;;;;0.20;0.20;;;4.50;99.90;;;4.62;100.00;99599.47;4837674;29;20214;-80
2022/01/31 05:19:05;;;;;;;0.20;0.20;;;4.60;99.90;;;4.41;100.00;99562.38;4859083;29;20599;-80
2022/01/31 05:21:33;;;;;;;0.20;0.20;;;4.60;99.90;;;4.37;100.00;99550.97;4856884;29;20209;-80
2022/01/31 05:24:02;;;;;;;2.40;1.15;;;4.50;99.90;;;4.32;100.00;99554.34;4845811;29;20198;-81
2022/01/31 05:26:30;;;;;;;0.52;0.52;;;4.50;99.90;;;4.33;100.00;99579.66;4844007;29;20210;-81
2022/01/31 05:28:58;;;;;;;0.30;0.30;;;4.40;99.90;;;4.25;100.00;99568.16;4861864;29;20232;-81
2022/01/31 05:31:26;;;;;;;0.20;0.20;;;4.40;99.90;;;4.14;100.00;99571.44;4837811;29;20284;-82
2022/01/31 05:33:54;;;;;;;0.20;0.20;;;4.30;99.90;;;4.10;100.00;99574.84;4856291;29;20249;-81
2022/01/31 05:36:24;;;;;;;0.30;0.30;;;4.30;99.90;;;4.08;100.00;99587.03;4814060;29;20214;-81
2022/01/31 05:38:51;;;;;;;0.28;0.28;;;4.70;99.90;;;4.07;100.00;99592.22;4829567;29;20589;-82
2022/01/31 05:41:20;;;;;;;0.20;0.20;;;4.20;99.90;;;4.11;100.00;99602.78;4858929;29;20230;-81
2022/01/31 05:43:48;;;;;;;0.20;0.20;;;4.20;99.90;;;4.15;100.00;99607.22;4873005;29;20210;-81
2022/01/31 05:46:17;;;;;;;0.20;0.20;;;4.20;99.90;;;4.11;100.00;99607.13;4831305;29;20213;-81
2022/01/31 05:48:45;;;;;;;0.20;0.20;;;4.20;99.90;;;4.32;100.00;99646.84;4843900;29;20230;-82
2022/01/31 05:51:22;;;;;;;0.20;0.20;;;4.30;99.90;;;4.21;100.00;99595.13;4844263;29;20226;-82
2022/01/31 05:53:51;;;;;;;0.68;0.68;;;4.30;99.90;;;4.18;100.00;99622.13;4849619;29;20237;-81
2022/01/31 05:56:19;;;;;;;0.20;0.20;;;4.30;99.90;;;4.20;100.00;99619.53;4831614;29;20217;-81
2022/01/31 05:58:49;;;;;;;0.20;0.20;;;4.30;99.90;;;4.09;100.00;99614.06;4856967;29;20237;-81
2022/01/31 06:01:22;;;;;;;0.20;0.20;;;4.30;99.90;;;4.10;100.00;99619.34;4836399;29;20660;-81
2022/01/31 06:03:50;;;;;;;0.20;0.20;;;4.20;99.90;;;4.09;100.00;99612.34;4831433;29;20211;-80
2022/01/31 06:06:18;;;;;;;0.20;0.20;;;4.30;99.90;;;4.06;100.00;99607.03;4839946;29;20214;-81
2022/01/31 06:08:46;;;;;;;0.20;0.20;;;;;;;4.11;100.00;99622.84;4835718;29;20230;-80
2022/01/31 06:11:15;;;;;;;0.20;0.20;;;;;;;4.03;100.00;99609.59;4848091;29;20225;-81
2022/01/31 06:13:45;;;;;;;0.20;0.20;;;4.20;99.90;;;4.11;100.00;99634.19;4843586;29;20218;-80
2022/01/31 06:16:13;;;;;;;0.20;0.20;;;4.20;99.90;;;4.10;100.00;99648.13;4857540;29;20227;-80
2022/01/31 06:18:41;;;;;;;0.30;0.30;;;4.20;99.90;;;4.20;100.00;99649.19;4860593;29;20229;-79
2022/01/31 06:21:11;;;;;;;0.25;0.25;;;4.30;99.90;;;4.14;100.00;99643.81;4815546;29;20230;-80
2022/01/31 06:23:40;;;;;;;0.20;0.20;;;4.30;99.90;;;4.08;100.00;99639.34;4830125;29;20206;-80
2022/01/31 06:26:09;;;;;;;0.20;0.20;;;4.30;99.90;;;4.01;100.00;99634.81;4856682;29;20214;-81
2022/01/31 06:28:40;;;;;;;0.20;0.20;;;4.20;99.90;;;3.95;100.00;99626.84;4857415;29;20234;-80
2022/01/31 06:31:29;;;;;;;0.10;0.10;;;4.20;99.90;;;3.97;100.00;99637.34;4832171;29;20214;-82
2022/01/31 06:33:59;;;;;;;0.20;0.20;;;4.10;99.90;;;3.92;100.00;99638.97;4846858;29;20209;-80
2022/01/31 06:36:28;;;;;;;0.20;0.20;;;4.10;99.90;;;3.98;100.00;99655.69;4827013;29;20210;-82
2022/01/31 06:38:56;;;;;;;0.20;0.20;;;4.10;99.90;;;3.91;100.00;99638.09;4845189;29;20250;-80
2022/01/31 06:41:24;;;;;;;0.13;0.13;;;4.10;99.90;;;3.90;100.00;99638.00;4841539;29;20207;-80
2022/01/31 06:43:53;;;;;;;0.20;0.20;;;4.10;99.90;;;3.89;100.00;99644.97;4860333;29;20209;-81
2022/01/31 06:46:21;;;;;;;0.28;0.28;;;4.10;99.90;;;3.95;100.00;99649.50;4829529;29;20305;-81
2022/01/31 06:48:50;;;;;;;0.20;0.20;;;4.10;99.90;;;3.86;100.00;99637.06;4832014;29;20233;-80
2022/01/31 06:51:18;;;;;;;0.20;0.20;;;4.00;99.90;;;3.90;100.00;99633.69;4858574;29;20225;-81
2022/01/31 06:53:50;;;;;;;0.20;0.20;;;4.10;99.90;;;3.91;100.00;99625.00;4836825;29;20221;-81
2022/01/31 06:56:18;;;;;;;0.20;0.20;;;4.10;99.90;;;3.88;100.00;99611.81;4834385;29;20230;-81
2022/01/31 06:58:46;;;;;;;0.20;0.20;;;4.00;99.90;;;3.90;100.00;99622.31;4824779;29;20248;-79
2022/01/31 07:01:16;;;;;;;0.20;0.20;;;;;;;3.84;100.00;99596.91;4818207;29;20221;-81
2022/01/31 07:03:44;;;;;;;0.20;0.20;;;4.00;99.90;;;3.92;100.00;99618.03;4844266;29;20225;-80
2022/01/31 07:06:12;;;;;;;0.30;0.30;;;4.00;99.90;;;4.04;100.00;99628.78;4826483;29;20222;-79
2022/01/31 07:08:40;;;;;;;0.20;0.20;;;4.10;99.90;;;4.01;100.00;99613.00;4812708;29;20229;-79
2022/01/31 07:11:08;;;;;;;0.20;0.20;;;4.10;99.90;;;4.03;100.00;99619.16;4814982;29;20210;-79
2022/01/31 07:13:38;;;;;;;0.20;0.20;;;4.10;99.90;;;3.95;100.00;99579.75;4841449;29;20206;-81
2022/01/31 07:16:06;;;;;;;0.20;0.20;;;4.10;99.90;;;3.95;100.00;99598.06;4827397;29;20238;-80
2022/01/31 07:18:36;;;;;;;0.20;0.20;;;4.10;99.90;;;3.95;100.00;99590.22;4839845;29;20233;-81
2022/01/31 07:21:05;;;;;;;0.50;0.50;;;4.10;99.90;;;3.91;100.00;99596.22;4850414;29;20221;-81
2022/01/31 07:24:02;;;;;;;0.10;0.10;;;4.10;99.90;;;3.94;100.00;99598.91;4841165;29;20210;-80
2022/01/31 07:26:31;;;;;;;0.20;0.20;;;4.10;99.90;;;4.01;100.00;99598.19;4846770;29;20217;-78
2022/01/31 07:29:00;;;;;;;0.20;0.20;;;4.10;99.90;;;3.90;100.00;99583.09;4839221;29;20227;-80
2022/01/31 07:31:28;;;;;;;0.13;0.13;;;4.10;99.90;;;4.03;100.00;99606.09;4829884;29;20221;-80
2022/01/31 07:33:56;;;;;;;0.20;0.20;;;4.10;99.90;;;4.03;100.00;99599.13;4838489;29;20218;-81
2022/01/31 07:36:23;;;;;;;0.20;0.20;;;4.10;99.90;;;3.93;100.00;99588.41;4850302;29;20243;-80
2022/01/31 07:38:51;;;;;;;0.20;0.20;;;4.10;99.90;;;3.93;100.00;99591.91;4840627;29;20233;-80
2022/01/31 07:41:19;;;;;;;0.25;0.25;;;4.10;99.90;;;4.04;100.00;99607.84;4870181;29;20241;-80
2022/01/31 07:43:47;;;;;;;0.30;0.30;;;4.10;99.90;;;4.12;100.00;99607.16;4854169;29;20231;-79
2022/01/31 07:46:16;;;;;;;0.20;0.20;;;4.20;99.90;;;4.01;100.00;99590.34;4828488;29;20224;-80
2022/01/31 07:48:44;;;;;;;0.30;0.30;;;4.20;99.90;;;3.99;100.00;99607.75;4833107;29;20245;-80
2022/01/31 07:51:12;;;;;;;0.20;0.20;;;4.10;99.90;;;4.08;100.00;99614.91;4839158;29;20205;-80
2022/01/31 07:53:40;;;;;;;0.10;0.10;;;4.10;99.90;;;4.07;100.00;99600.94;4815363;29;20235;-80
2022/01/31 07:56:09;;;;;;;0.30;0.30;;;4.20;99.90;;;4.12;100.00;99601.03;4818531;29;20233;-82
2022/01/31 07:58:38;;;;;;;0.20;0.20;;;4.20;99.90;;;4.20;100.00;99614.28;4829313;29;20738;-82
2022/01/31 08:01:07;;;;;;;0.20;0.20;;;4.20;99.90;;;4.23;100.00;99606.50;4829073;29;20206;-83
2022/01/31 08:03:36;;;;;;;0.20;0.20;;;4.30;99.90;;;4.22;100.00;99615.22;4825568;29;20210;-83
2022/01/31 08:06:05;;;;;;;0.20;0.20;;;4.30;99.90;;;4.22;100.00;99623.94;4821798;29;20215;-81
2022/01/31 08:08:36;;;;;;;0.30;0.30;;;4.30;99.90;;;4.20;100.00;99630.00;4845741;29;20245;-81
2022/01/31 08:11:05;;;;;;;0.20;0.20;;;4.30;99.90;;;4.22;100.00;99639.66;4852403;29;20216;-81
2022/01/31 08:13:34;;;;;;;0.50;0.50;;;4.30;99.90;;;4.28;100.00;99641.50;4823338;29;20214;-80
2022/01/31 08:18:38;;;;;;;0.20;0.20;;;4.40;99.90;;;4.44;100.00;99659.31;4808197;29;20245;-81
2022/01/31 08:21:08;;;;;;;0.20;0.20;;;4.40;99.90;;;4.65;100.00;99677.19;4866534;29;20209;-81
2022/01/31 08:23:37;;;;;;;0.10;0.10;;;4.50;99.90;;;4.72;100.00;99659.00;4838961;29;20217;-81
2022/01/31 08:26:10;;;;;;;0.20;0.20;;;4.60;99.90;;;4.69;100.00;99639.75;4824257;29;20218;-81
2022/01/31 08:28:45;;;;;;;0.20;0.20;;;4.70;99.90;;;4.69;100.00;99629.25;4835725;29;20238;-80
2022/01/31 08:31:17;;;;;;;0.20;0.20;;;4.70;99.90;;;4.81;100.00;99627.75;4814680;29;20226;-81
2022/01/31 08:34:03;;;;;;;0.20;0.20;;;4.80;99.90;;;4.71;100.00;99601.38;4836545;29;20221;-81
2022/01/31 08:36:34;;;;;;;0.20;0.20;;;4.80;99.90;;;4.79;100.00;99615.50;4826494;29;20238;-81
2022/01/31 08:39:17;;;;;;;0.20;0.20;;;4.80;99.90;;;4.78;100.00;99604.13;4829247;29;20210;-80
2022/01/31 08:41:51;;;;;;;0.20;0.20;;;4.80;99.90;;;4.82;100.00;99591.97;4839589;29;20221;-80
2022/01/31 08:44:22;;;;;;;0.20;0.20;;;4.80;99.90;;;4.79;100.00;99584.06;4830195;29;20218;-81
2022/01/31 08:46:51;;;;;;;0.20;0.20;;;4.90;99.90;;;4.82;100.00;99578.88;4837815;29;20214;-80
2022/01/31 08:49:19;;;;;;;0.20;0.20;;;4.90;99.90;;;4.81;100.00;99570.13;4836891;29;20214;-81
2022/01/31 08:51:47;;;;;;;0.20;0.20;;;4.80;99.90;;;4.88;100.00;99565.00;4837518;29;20217;-79
2022/01/31 08:54:15;;;;;;;0.20;0.20;;;4.90;99.90;;;4.89;100.00;99551.06;4832836;29;20221;-80
2022/01/31 08:56:45;;;;;;;0.20;0.20;;;4.90;99.90;;;4.88;100.00;99541.44;4829482;29;20222;-81
2022/01/31 08:59:18;;;;;;;0.20;0.20;;;4.90;99.90;;;4.99;100.00;99534.63;4822104;29;20218;-81
2022/01/31 09:02:03;;;;;;;0.20;0.20;;;5.00;99.90;;;5.01;100.00;99527.69;4868673;29;20213;-81
2022/01/31 09:04:47;;;;;;;0.20;0.20;;;5.00;99.90;;;5.02;100.00;99519.84;4838721;29;20667;-81
2022/01/31 09:07:21;;;;;;;0.20;0.20;;;5.10;99.90;;;4.98;100.00;99511.91;4824549;29;20245;-81
2022/01/31 09:09:53;;;;;;;0.20;0.20;;;5.10;99.90;;;5.01;100.00;99511.97;4853554;29;20214;-82
2022/01/31 09:12:30;;;;;;;0.20;0.20;;;5.10;99.90;;;5.04;100.00;99504.16;4832380;29;20221;-81
2022/01/31 09:14:59;;;;;;;0.30;0.30;;;5.10;99.90;;;5.12;100.00;99516.53;4851700;29;20622;-81
2022/01/31 09:17:27;;;;;;;0.10;0.10;;;5.10;99.90;;;5.17;100.00;99519.22;4852570;29;20238;-82
2022/01/31 09:19:54;;;;;;;0.10;0.10;;;5.20;99.90;;;5.13;100.00;99496.44;4825826;29;20214;-81
2022/01/31 09:22:22;;;;;;;0.20;0.20;;;5.20;99.90;;;5.20;100.00;99500.03;4807223;29;20227;-81
2022/01/31 09:24:51;;;;;;;0.20;0.20;;;5.20;99.90;;;5.26;100.00;99492.28;4806834;29;20217;-82
2022/01/31 09:27:20;;;;;;;0.20;0.20;;;5.20;99.90;;;5.22;100.00;99477.38;4848131;29;20238;-81
2022/01/31 09:29:48;;;;;;;0.10;0.10;;;5.30;99.90;;;5.22;100.00;99467.78;4835404;29;20297;-81
2022/01/31 09:32:22;;;;;;;0.10;0.10;;;5.30;99.90;;;5.24;100.00;99475.66;4837677;29;20610;-79
2022/01/31 09:34:53;;;;;;;0.10;0.10;;;5.30;99.90;;;5.27;100.00;99475.72;4808441;29;20213;-79
2022/01/31 09:37:22;;;;;;;0.10;0.10;;;;;;;5.37;100.00;99474.97;4839045;29;20246;-80
2022/01/31 09:39:50;;;;;;;0.17;0.17;;;5.40;99.90;;;5.36;100.00;99471.47;4826344;29;20212;-80
2022/01/31 09:42:36;;;;;;;0.25;0.25;;;5.40;99.90;;;5.38;100.00;99472.38;4831915;29;20234;-82
2022/01/31 09:45:13;;;;;;;0.20;0.20;;;5.40;99.90;;;5.40;100.00;99477.66;4843368;29;20211;-83
2022/01/31 09:50:18;;;;;;;0.20;0.20;;;5.50;99.90;;;5.64;100.00;99471.88;4844801;29;20213;-83
2022/01/31 09:52:46;;;;;;;0.20;0.20;;;5.60;99.90;;;5.61;100.00;99484.94;4829593;29;20702;-83
2022/01/31 09:55:14;;;;;;;0.20;0.20;;;5.60;99.90;;;5.53;100.00;99462.97;4847440;29;20221;-82
2022/01/31 09:57:42;;;;;;;0.20;0.20;;;5.60;99.90;;;5.62;100.00;99484.06;4832563;29;20237;-80
2022/01/31 10:00:11;;;;;;;0.20;0.20;;;5.60;99.90;;;5.68;100.00;99481.53;4827176;29;20241;-80
2022/01/31 10:03:09;;;;;;;0.30;0.30;;;5.70;99.90;;;5.69;100.00;99499.03;4832849;29;20210;-80
2022/01/31 10:05:38;;;;;;;0.20;0.20;;;5.70;99.90;;;5.66;100.00;99485.88;4841378;29;20214;-81
2022/01/31 10:08:16;;;;;;;0.20;0.20;;;5.70;99.90;;;5.62;100.00;99486.69;4843144;29;20228;-80
2022/01/31 10:10:47;;;;;;;0.20;0.20;;;5.70;99.90;;;5.58;100.00;99474.41;4857275;29;20206;-80
2022/01/31 10:16:26;;;;;;;0.10;0.10;;;5.70;99.90;;;5.70;100.00;99485.94;4868813;29;20742;-80
2022/01/31 10:19:09;;;;;;;0.10;0.10;;;5.70;99.90;;;5.74;100.00;99505.22;4863027;29;20229;-80
2022/01/31 10:22:03;;;;;;;0.20;0.20;;;5.80;99.90;;;5.76;100.00;99499.13;4854521;29;20209;-81
2022/01/31 10:24:33;;;;;;;1.17;1.17;;;5.80;99.90;;;5.77;100.00;99495.66;4856669;29;20516;-81
2022/01/31 10:27:21;;;;;;;0.30;0.30;;;5.80;99.90;;;5.76;100.00;99483.41;4855819;29;20603;-81
2022/01/31 10:29:52;;;;;;;0.20;0.20;;;5.80;99.90;;;5.80;100.00;99502.69;4864341;29;20220;-80
2022/01/31 10:32:32;;;;;;;0.20;0.20;;;5.80;99.90;;;5.83;100.00;99486.09;4858713;29;20218;-81
2022/01/31 10:35:07;;;;;;;0.30;0.30;;;5.90;99.90;;;5.83;100.00;99473.84;4830517;29;20224;-81
2022/01/31 10:37:38;;;;;;;0.20;0.20;;;5.90;99.90;;;5.90;100.00;99480.97;4832854;29;20726;-81
2022/01/31 10:54:51;;;;;;;0.28;0.28;;;6.10;99.90;;;6.05;100.00;99427.78;4857386;29;20216;-79
2022/01/31 10:57:21;;;;;;;0.22;0.22;;;6.10;99.90;;;6.09;100.00;99414.72;4828238;29;20244;-81
2022/01/31 10:59:51;;;;;;;0.20;0.20;;;6.10;99.90;;;6.14;100.00;99411.25;4845563;29;20206;-81
2022/01/31 11:02:23;;;;;;;0.20;0.20;;;6.20;99.90;;;6.17;100.00;99408.66;4856401;29;20214;-79
2022/01/31 11:04:53;;;;;;;0.30;0.30;;;6.20;99.90;;;6.18;100.00;99402.56;4817344;29;20210;-80